Time;durP1;ratioP1;P1;durP2;ratioP2;P2;SDS_P1;SDS_P2;PMS_P1;PMS_P2;Temp;Humidity;BMP_temperature;BMP_pressure;BME280_temperature;BME280_humidity;BME280_pressure;Samples;Min_cycle;Max_cycle;Signal;HPM_P1;HPM_P2
2022/01/22 00:02:07;;;;;;;15.77;10.25;;;;;;;5.71;58.77;101461.91;5116928;28;20067;-74
2022/01/22 00:04:34;;;;;;;17.08;9.85;;;;;;;5.12;60.33;101467.00;5115435;28;20046;-75
2022/01/22 00:07:02;;;;;;;18.70;10.43;;;;;;;5.51;59.67;101458.84;5116298;28;20097;-74
2022/01/22 00:09:52;;;;;;;14.35;9.57;;;;;;;5.65;59.28;101472.97;5116330;28;20502;-73
2022/01/22 00:15:11;;;;;;;19.58;10.40;;;;;;;5.05;61.28;101462.09;5076335;28;20123;-74
2022/01/22 00:17:38;;;;;;;17.15;9.80;;;;;;;5.68;59.66;101468.28;5115907;28;20055;-73
2022/01/22 00:20:05;;;;;;;14.75;9.65;;;;;;;5.59;59.86;101460.94;5113755;28;20054;-74
2022/01/22 00:22:34;;;;;;;16.98;10.00;;;;;;;5.88;58.85;101466.00;5114472;28;20118;-73
2022/01/22 00:25:02;;;;;;;16.85;9.70;;;;;;;5.17;61.03;101476.31;5114126;28;20133;-74
2022/01/22 00:27:29;;;;;;;17.35;10.30;;;;;;;5.81;59.29;101480.72;5114318;28;20043;-73
2022/01/22 00:29:55;;;;;;;15.00;9.43;;;;;;;5.46;59.86;101468.13;5113282;28;20126;-74
2022/01/22 00:32:22;;;;;;;14.80;9.77;;;;;;;5.52;59.98;101465.88;5117954;28;20127;-74
2022/01/22 00:34:49;;;;;;;17.92;10.50;;;;;;;5.70;59.46;101463.72;5110095;28;20377;-73
2022/01/22 00:37:15;;;;;;;17.50;10.82;;;;;;;5.56;59.98;101461.19;5117434;28;21575;-73
2022/01/22 00:39:42;;;;;;;17.75;10.30;;;;;;;5.27;61.15;101455.25;5099792;28;20079;-73
2022/01/22 00:42:12;;;;;;;17.33;11.02;;;;;;;5.71;59.72;101473.41;5118594;28;20506;-73
2022/01/22 00:44:40;;;;;;;17.27;10.40;;;;;;;5.52;60.29;101463.22;5117434;28;20043;-73
2022/01/22 00:47:06;;;;;;;20.45;11.20;;;;;;;5.41;60.45;101460.47;5118031;28;20071;-73
2022/01/22 00:49:33;;;;;;;18.85;11.10;;;;;;;5.43;61.05;101468.34;5116831;28;20531;-73
2022/01/22 00:52:00;;;;;;;18.65;11.23;;;;;;;5.85;59.72;101474.22;5118828;28;20122;-73
2022/01/22 00:54:28;;;;;;;24.50;12.13;;;;;;;5.59;60.54;101476.91;5117207;28;20063;-73
2022/01/22 00:56:54;;;;;;;20.83;12.48;;;;;;;5.66;60.09;101475.53;5118099;28;20068;-73
2022/01/22 00:59:21;;;;;;;18.70;10.45;;;;;;;5.69;60.22;101479.78;5120438;28;20043;-73
2022/01/22 01:01:47;;;;;;;20.73;12.43;;;;;;;5.67;59.58;101493.22;5118445;28;20162;-73
2022/01/22 01:04:14;;;;;;;18.08;11.52;;;;;;;5.56;60.44;101489.59;5116523;28;20041;-74
2022/01/22 01:06:42;;;;;;;17.98;10.88;;;;;;;5.78;59.72;101500.44;5117594;28;20092;-73
2022/01/22 01:09:10;;;;;;;18.13;11.50;;;;;;;5.93;59.44;101501.13;5117817;28;20122;-73
2022/01/22 01:11:43;;;;;;;15.98;10.68;;;;;;;5.87;59.44;101498.91;5108658;28;20071;-73
2022/01/22 01:14:15;;;;;;;16.42;11.10;;;;;;;6.11;59.12;101496.28;5118018;28;20111;-74
2022/01/22 01:17:08;;;;;;;;;;;;;;;5.98;58.90;101502.50;5118987;28;20063;-73
2022/01/22 01:36:16;;;;;;;12.45;8.88;;;;;;;5.46;61.01;101514.22;5094845;28;20036;-73
2022/01/22 01:38:49;;;;;;;14.45;7.95;;;;;;;5.92;59.62;101518.94;5119925;28;20083;-73
2022/01/22 01:41:46;;;;;;;12.30;7.63;;;;;;;5.66;60.20;101512.78;5118115;28;20043;-73
2022/01/22 01:44:13;;;;;;;11.07;7.07;;;;;;;5.67;59.95;101519.84;5116632;28;20473;-72
2022/01/22 01:46:48;;;;;;;14.40;7.55;;;;;;;5.72;60.02;101528.34;5118904;28;20069;-72
2022/01/22 01:49:15;;;;;;;10.60;7.03;;;;;;;5.61;60.21;101535.38;5118005;28;20127;-73
2022/01/22 01:51:42;;;;;;;9.57;6.63;;;;;;;6.06;59.11;101549.91;5117570;28;20108;-72
2022/01/22 01:54:28;;;;;;;11.13;6.55;;;;;;;5.93;59.36;101546.41;5118160;28;20067;-72
2022/01/22 01:59:42;;;;;;;8.88;6.35;;;;;;;6.03;58.92;101555.44;5116830;28;20059;-74
2022/01/22 02:02:10;;;;;;;11.23;7.55;;;;;;;6.21;58.39;101550.59;5117501;28;20075;-72
2022/01/22 02:04:37;;;;;;;13.27;7.00;;;;;;;6.32;58.13;101555.16;5099386;28;20126;-72
2022/01/22 02:07:23;;;;;;;10.27;7.05;;;;;;;6.16;58.34;101556.25;5117878;28;20065;-72
2022/01/22 02:10:21;;;;;;;10.77;6.85;;;;;;;6.32;57.86;101563.16;5116638;28;20124;-74
2022/01/22 02:13:38;;;;;;;9.70;6.32;;;;;;;6.30;57.36;101565.97;5099667;28;20039;-73
2022/01/22 02:23:52;;;;;;;12.20;6.85;;;;;;;5.93;58.26;101586.34;5117184;28;20074;-72
2022/01/22 02:26:19;;;;;;;9.68;7.00;;;;;;;5.82;59.28;101595.09;5115929;28;20063;-72
2022/01/22 02:28:48;;;;;;;9.70;6.93;;;;;;;6.10;58.43;101594.00;5105983;28;20578;-73
2022/01/22 02:31:28;;;;;;;10.52;6.82;;;;;;;6.38;57.24;101592.03;5115826;28;20107;-73
2022/01/22 02:36:38;;;;;;;9.32;6.68;;;;;;;6.38;57.00;101606.22;5114101;28;20126;-73
2022/01/22 02:39:20;;;;;;;10.52;6.88;;;;;;;5.98;58.38;101606.41;5116840;28;20497;-72
2022/01/22 02:41:50;;;;;;;10.68;6.82;;;;;;;6.21;57.54;101591.41;5114914;28;20058;-73
2022/01/22 02:44:35;;;;;;;10.98;6.65;;;;;;;6.01;58.11;101610.66;5115353;28;20066;-73
2022/01/22 02:47:05;;;;;;;9.80;7.20;;;;;;;5.97;58.15;101595.84;5115600;28;20035;-73
2022/01/22 02:49:31;;;;;;;11.32;7.50;;;;;;;6.34;57.29;101596.75;5116035;28;20059;-73
2022/01/22 02:52:09;;;;;;;12.95;7.88;;;;;;;6.02;58.08;101604.38;5117205;28;20043;-73
2022/01/22 02:54:38;;;;;;;12.35;7.25;;;;;;;6.14;57.71;101606.13;5116116;28;20048;-73
2022/01/22 02:57:08;;;;;;;11.57;7.78;;;;;;;6.10;57.55;101611.81;5117774;28;20066;-73
2022/01/22 02:59:34;;;;;;;13.93;7.75;;;;;;;6.02;58.00;101607.03;5117123;28;20067;-73
2022/01/22 03:02:03;;;;;;;11.10;8.02;;;;;;;6.20;57.06;101615.50;5115374;28;20126;-73
2022/01/22 03:04:31;;;;;;;19.10;8.25;;;;;;;6.20;57.29;101620.84;5117142;28;20453;-73
2022/01/22 03:06:58;;;;;;;11.95;7.43;;;;;;;5.76;58.64;101622.16;5116333;28;20480;-72
2022/01/22 03:09:30;;;;;;;14.90;7.90;;;;;;;5.71;58.11;101617.16;5115879;28;20126;-72
2022/01/22 03:20:06;;;;;;;10.48;6.97;;;;;;;5.91;57.72;101636.25;5115658;28;20055;-73
2022/01/22 03:27:48;;;;;;;11.18;7.05;;;;;;;5.81;57.69;101646.66;5116561;28;20479;-72
2022/01/22 03:30:14;;;;;;;14.50;6.75;;;;;;;5.81;58.00;101651.16;5117009;28;20082;-72
2022/01/22 03:32:45;;;;;;;11.98;6.43;;;;;;;6.08;56.93;101654.56;5116236;28;20122;-72
2022/01/22 03:37:51;;;;;;;11.30;6.53;;;;;;;5.46;59.09;101651.75;5115742;28;20047;-72
2022/01/22 03:40:21;;;;;;;14.27;7.25;;;;;;;5.76;58.10;101670.94;5116819;28;20498;-74
2022/01/22 03:42:48;;;;;;;13.30;6.97;;;;;;;5.50;58.65;101667.41;5117017;28;20506;-72
2022/01/22 03:45:15;;;;;;;11.80;6.60;;;;;;;5.30;58.75;101665.25;5115960;28;20479;-72
2022/01/22 03:47:42;;;;;;;12.88;6.72;;;;;;;5.26;58.89;101655.75;5115237;28;20071;-72
2022/01/22 03:50:11;;;;;;;12.98;6.70;;;;;;;5.44;58.67;101664.31;5097242;28;20070;-74
2022/01/22 03:52:37;;;;;;;12.90;7.03;;;;;;;5.07;59.35;101661.44;5115714;28;20051;-71
2022/01/22 03:55:07;;;;;;;13.88;6.20;;;;;;;5.60;58.04;101661.47;5115840;28;20067;-72
2022/01/22 03:57:34;;;;;;;12.85;6.45;;;;;;;5.26;58.93;101661.09;5115126;28;20039;-72
2022/01/22 04:00:01;;;;;;;11.75;6.18;;;;;;;5.53;58.02;101669.88;5115600;28;20071;-72
2022/01/22 04:05:13;;;;;;;15.68;5.30;;;;;;;4.84;59.19;101675.41;5115295;28;20044;-72
2022/01/22 04:10:25;;;;;;;11.18;5.00;;;;;;;5.07;57.69;101690.69;5116359;28;20043;-71
2022/01/22 04:13:03;;;;;;;11.52;4.82;;;;;;;5.17;57.54;101688.28;5116282;28;20040;-72
2022/01/22 04:15:32;;;;;;;12.52;4.80;;;;;;;5.03;57.59;101700.69;5115898;28;20060;-71
2022/01/22 04:24:50;;;;;;;9.43;3.85;;;;;;;5.41;56.77;101696.44;5114452;28;20123;-71
2022/01/22 04:28:56;;;;;;;8.50;3.47;;;;;;;5.10;57.41;101709.13;5115646;28;20122;-71
2022/01/22 04:31:23;;;;;;;7.57;3.60;;;;;;;5.42;56.07;101714.09;5114752;28;20135;-72
2022/01/22 04:33:50;;;;;;;9.77;3.63;;;;;;;5.37;56.34;101713.56;5115342;28;20055;-72
2022/01/22 04:36:16;;;;;;;13.15;3.55;;;;;;;5.34;56.49;101722.59;5114729;28;20044;-73
2022/01/22 04:38:43;;;;;;;15.35;4.55;;;;;;;5.50;55.70;101725.13;5114754;28;20136;-72
2022/01/22 04:41:09;;;;;;;11.98;4.05;;;;;;;5.32;56.27;101727.19;5114150;28;20107;-72
2022/01/22 04:43:38;;;;;;;15.70;4.82;;;;;;;5.33;56.23;101731.56;5114159;28;20070;-71
2022/01/22 04:46:13;;;;;;;13.38;5.13;;;;;;;5.11;57.29;101744.53;5114243;28;20520;-72
2022/01/22 04:49:06;;;;;;;9.68;4.57;;;;;;;5.18;56.73;101746.72;5114370;28;20127;-72
2022/01/22 04:57:03;;;;;;;14.88;4.57;;;;;;;5.37;56.27;101769.47;5115724;28;20063;-72
2022/01/22 04:59:29;;;;;;;11.73;4.93;;;;;;;5.36;56.45;101773.09;5115717;28;20070;-72
2022/01/22 05:01:56;;;;;;;10.88;4.45;;;;;;;5.18;56.79;101775.09;5116195;28;20063;-72
2022/01/22 05:04:23;;;;;;;10.50;4.82;;;;;;;5.34;56.37;101781.16;5114571;28;20097;-72
2022/01/22 05:06:49;;;;;;;16.50;4.93;;;;;;;5.28;56.75;101781.53;5115033;28;20056;-72
2022/01/22 05:09:16;;;;;;;10.40;5.03;;;;;;;4.86;57.89;101787.81;5114871;28;20054;-72
2022/01/22 05:11:42;;;;;;;15.63;5.05;;;;;;;5.42;56.41;101786.84;5115211;28;20373;-72
2022/01/22 05:14:09;;;;;;;10.57;4.25;;;;;;;5.27;56.99;101796.66;5114404;28;20063;-71
2022/01/22 05:16:35;;;;;;;14.40;4.57;;;;;;;5.04;57.76;101802.63;5113555;28;20074;-72
2022/01/22 05:19:10;;;;;;;12.73;5.28;;;;;;;5.08;57.62;101806.78;5118170;28;20071;-72
2022/01/22 05:21:38;;;;;;;15.43;5.65;;;;;;;4.87;58.20;101814.31;5118023;28;20198;-72
2022/01/22 05:24:09;;;;;;;16.23;5.15;;;;;;;4.93;57.76;101808.59;5117194;28;20059;-73
2022/01/22 05:29:30;;;;;;;12.13;4.63;;;;;;;5.06;57.12;101819.31;5118820;28;20524;-73
2022/01/22 05:37:28;;;;;;;15.20;5.25;;;;;;;5.05;56.72;101844.22;5118448;28;20066;-73
2022/01/22 05:39:54;;;;;;;13.00;4.72;;;;;;;4.92;57.07;101844.13;5120225;28;20082;-73
2022/01/22 05:42:21;;;;;;;19.20;6.80;;;;;;;5.19;56.46;101848.66;5118106;28;20050;-74
2022/01/22 05:44:47;;;;;;;18.83;7.22;;;;;;;5.17;56.32;101859.38;5100318;28;20071;-74
2022/01/22 05:47:20;;;;;;;16.73;6.45;;;;;;;5.33;55.56;101855.78;5117151;28;20071;-74
2022/01/22 05:49:46;;;;;;;12.90;4.00;;;;;;;5.24;56.00;101860.69;5117769;28;20044;-73
2022/01/22 05:52:19;;;;;;;20.20;5.07;;;;;;;5.03;56.36;101865.56;5117633;28;20482;-73
2022/01/22 05:55:12;;;;;;;12.85;4.28;;;;;;;5.16;55.56;101880.78;5117494;28;20047;-73
2022/01/22 06:00:24;;;;;;;10.55;4.22;;;;;;;5.15;55.93;101876.41;5118470;28;20059;-73
2022/01/22 06:02:50;;;;;;;12.77;3.70;;;;;;;5.31;55.15;101890.44;5116452;28;20074;-72
2022/01/22 06:05:18;;;;;;;12.23;4.03;;;;;;;4.97;56.13;101894.34;5117317;28;20463;-74
2022/01/22 06:07:44;;;;;;;11.32;3.80;;;;;;;5.06;55.98;101893.78;5117927;28;20093;-72
2022/01/22 06:10:17;;;;;;;13.18;4.38;;;;;;;5.17;55.60;101901.94;5118234;28;20044;-72
2022/01/22 06:15:18;;;;;;;10.93;4.32;;;;;;;5.05;55.55;101905.41;5117989;28;20108;-73
2022/01/22 06:17:44;;;;;;;11.65;4.72;;;;;;;5.13;55.23;101912.88;5117008;28;20440;-73
2022/01/22 06:20:12;;;;;;;13.98;4.78;;;;;;;5.03;55.54;101909.94;5118430;28;20044;-73
2022/01/22 06:22:41;;;;;;;16.38;5.18;;;;;;;5.03;55.93;101917.91;5117360;28;20063;-73
2022/01/22 06:25:08;;;;;;;10.15;4.75;;;;;;;5.03;55.32;101918.78;5117327;28;20059;-73
2022/01/22 06:27:34;;;;;;;18.60;5.05;;;;;;;5.02;55.50;101929.53;5116376;28;20044;-73
2022/01/22 06:30:02;;;;;;;13.95;5.18;;;;;;;4.87;55.88;101928.66;5115139;28;20075;-73
2022/01/22 06:32:29;;;;;;;20.60;5.57;;;;;;;4.79;56.04;101933.56;5116124;28;20055;-73
2022/01/22 06:34:55;;;;;;;15.60;5.28;;;;;;;4.95;55.94;101934.34;5115515;28;20138;-73
2022/01/22 06:37:22;;;;;;;14.80;5.70;;;;;;;5.06;55.42;101941.66;5115733;28;20213;-73
2022/01/22 06:42:38;;;;;;;15.18;5.25;;;;;;;4.98;55.50;101950.13;5087730;28;20048;-73
2022/01/22 06:45:05;;;;;;;14.43;4.85;;;;;;;4.91;55.66;101947.94;5116891;28;20046;-73
2022/01/22 06:47:32;;;;;;;23.67;6.10;;;;;;;4.79;56.41;101949.53;5117416;28;20541;-73
2022/01/22 06:49:59;;;;;;;14.38;5.22;;;;;;;4.98;55.35;101960.75;5117870;28;20031;-73
2022/01/22 06:52:26;;;;;;;11.85;5.07;;;;;;;4.87;56.31;101962.34;5117423;28;20059;-73
2022/01/22 06:54:52;;;;;;;20.77;5.57;;;;;;;4.86;55.94;101956.19;5098767;28;20171;-73
2022/01/22 06:57:19;;;;;;;14.93;5.53;;;;;;;4.70;56.65;101964.25;5117231;28;20067;-74
2022/01/22 06:59:45;;;;;;;15.60;5.78;;;;;;;4.79;56.48;101976.09;5117458;28;20135;-73
2022/01/22 07:02:14;;;;;;;16.60;5.72;;;;;;;4.75;56.21;101980.75;5116540;28;20039;-73
2022/01/22 07:04:40;;;;;;;10.07;5.38;;;;;;;4.74;55.43;101984.38;5116412;28;20055;-73
2022/01/22 07:07:09;;;;;;;24.92;5.57;;;;;;;4.85;55.49;101988.19;5116785;28;20067;-72
2022/01/22 07:09:36;;;;;;;15.00;5.03;;;;;;;4.88;55.58;101991.53;5117480;28;20047;-73
2022/01/22 07:12:04;;;;;;;16.00;5.38;;;;;;;4.95;55.15;101997.34;5116946;28;20043;-70
2022/01/22 07:14:31;;;;;;;14.85;6.03;;;;;;;4.86;55.37;102003.19;5114027;28;20043;-71
2022/01/22 07:16:58;;;;;;;18.58;5.45;;;;;;;4.43;56.44;102011.03;5116228;27;20038;-71
2022/01/22 07:19:24;;;;;;;18.40;5.47;;;;;;;4.86;55.53;102009.34;5116620;28;20044;-71
2022/01/22 07:22:03;;;;;;;17.52;5.38;;;;;;;4.90;55.16;102007.38;5115618;28;20078;-70
2022/01/22 07:24:37;;;;;;;14.00;5.25;;;;;;;5.11;54.38;102006.09;5115843;28;20131;-70
2022/01/22 07:27:04;;;;;;;16.67;4.88;;;;;;;4.93;55.26;101999.22;5115431;28;20043;-71
2022/01/22 07:29:30;;;;;;;14.68;5.53;;;;;;;5.03;54.78;101997.72;5115978;28;20126;-71
2022/01/22 07:32:01;;;;;;;15.93;5.00;;;;;;;4.91;54.97;102006.44;5115844;28;20122;-71
2022/01/22 07:34:27;;;;;;;10.70;4.35;;;;;;;5.05;54.61;102011.78;5114797;28;20127;-71
2022/01/22 07:36:54;;;;;;;16.80;5.68;;;;;;;5.11;54.50;102008.75;5115310;28;20040;-72
2022/01/22 07:39:20;;;;;;;18.60;6.05;;;;;;;5.27;53.70;102004.19;5114975;28;20472;-71
2022/01/22 07:41:47;;;;;;;19.15;5.40;;;;;;;5.18;54.22;102019.84;5115242;28;20071;-72
2022/01/22 07:44:13;;;;;;;17.73;5.45;;;;;;;4.91;54.54;102022.41;5116050;28;20124;-71
2022/01/22 07:46:40;;;;;;;17.45;5.15;;;;;;;5.18;54.07;102019.84;5114995;28;20055;-71
2022/01/22 07:49:06;;;;;;;14.32;4.40;;;;;;;5.03;54.25;102033.13;5113642;28;20047;-71
2022/01/22 07:51:33;;;;;;;14.52;4.85;;;;;;;5.27;54.08;102020.16;5114650;28;20067;-71
2022/01/22 07:54:00;;;;;;;17.42;5.85;;;;;;;5.15;54.08;102023.59;5114920;28;20071;-71
2022/01/22 07:56:27;;;;;;;16.52;4.88;;;;;;;5.21;53.83;102025.88;5115533;28;20066;-71
2022/01/22 07:58:54;;;;;;;13.52;4.70;;;;;;;5.36;53.66;102026.75;5114274;28;20163;-71
2022/01/22 08:01:20;;;;;;;27.90;6.25;;;;;;;5.18;54.03;102031.38;5114584;28;20131;-71
2022/01/22 08:03:47;;;;;;;14.30;5.30;;;;;;;5.25;54.04;102034.53;5114981;28;20047;-71
2022/01/22 08:06:13;;;;;;;20.15;5.50;;;;;;;5.28;53.84;102035.19;5114633;28;20109;-73
2022/01/22 08:08:40;;;;;;;16.02;5.15;;;;;;;5.39;53.03;102036.34;5114014;28;20544;-72
2022/01/22 08:11:07;;;;;;;17.02;4.80;;;;;;;5.05;53.81;102043.72;5113606;28;20135;-74
2022/01/22 08:13:33;;;;;;;12.32;4.45;;;;;;;5.40;53.16;102036.22;5113989;28;20050;-72
2022/01/22 08:16:00;;;;;;;13.45;4.95;;;;;;;5.33;53.35;102044.69;5114189;28;20036;-74
2022/01/22 08:18:26;;;;;;;10.95;4.45;;;;;;;5.43;52.84;102043.19;5114627;28;20043;-74
2022/01/22 08:20:53;;;;;;;19.83;5.57;;;;;;;5.34;53.65;102043.75;5113939;28;20063;-74
2022/01/22 08:23:20;;;;;;;15.43;5.10;;;;;;;5.47;52.66;102052.69;5114112;28;20135;-74
2022/01/22 08:25:48;;;;;;;10.93;4.70;;;;;;;5.40;52.97;102059.34;5114638;28;20096;-73
2022/01/22 08:31:05;;;;;;;20.55;5.82;;;;;;;5.37;53.42;102072.81;5114802;28;20468;-72
2022/01/22 08:35:52;;;;;;;21.73;7.70;;;;;;;5.25;53.29;102083.28;5095588;28;20044;-72
2022/01/22 08:36:18;;;;;;;15.38;6.43;;;;;;;5.72;52.19;102076.81;5113510;28;20130;-72
2022/01/22 08:38:45;;;;;;;13.65;4.93;;;;;;;5.91;51.68;102081.03;5113934;28;20051;-73
2022/01/22 08:41:11;;;;;;;16.73;5.28;;;;;;;6.02;51.74;102091.00;5114641;28;20043;-74
2022/01/22 08:43:38;;;;;;;16.00;5.22;;;;;;;6.11;51.40;102090.41;5114661;28;20047;-73
2022/01/22 08:46:04;;;;;;;14.73;4.38;;;;;;;6.01;51.33;102095.47;5115361;28;20052;-74
2022/01/22 08:48:31;;;;;;;14.85;4.85;;;;;;;6.06;50.96;102100.50;5115019;28;20063;-74
2022/01/22 08:50:57;;;;;;;15.23;4.95;;;;;;;5.96;51.46;102102.88;5114118;28;20044;-73
2022/01/22 08:53:44;;;;;;;13.85;4.68;;;;;;;5.71;51.71;102104.41;5117076;28;20083;-73
2022/01/22 08:56:11;;;;;;;15.65;4.53;;;;;;;5.43;52.32;102115.03;5118834;28;20051;-73
2022/01/22 08:58:37;;;;;;;13.02;3.75;;;;;;;6.14;50.34;102115.03;5120377;28;20070;-74
2022/01/22 09:01:05;;;;;;;13.27;4.22;;;;;;;6.27;50.22;102112.50;5119283;28;20138;-74
2022/01/22 09:03:32;;;;;;;12.38;4.07;;;;;;;6.23;50.49;102116.28;5116666;28;20097;-74
2022/01/22 09:06:00;;;;;;;13.05;4.00;;;;;;;5.98;50.68;102120.50;5110595;28;20067;-74
2022/01/22 09:08:26;;;;;;;17.35;4.82;;;;;;;5.89;51.26;102122.88;5117325;28;20571;-74
2022/01/22 09:10:53;;;;;;;15.35;3.67;;;;;;;6.29;49.75;102115.03;5119432;28;20051;-74
2022/01/22 09:13:21;;;;;;;14.85;3.83;;;;;;;6.21;49.86;102116.34;5118736;28;20139;-74
2022/01/22 09:15:50;;;;;;;11.77;3.80;;;;;;;5.64;51.32;102135.03;5116645;28;20048;-73
2022/01/22 09:18:17;;;;;;;11.80;3.53;;;;;;;6.11;49.94;102131.22;5117709;28;20107;-74
2022/01/22 09:21:01;;;;;;;7.80;3.65;;;;;;;6.25;49.75;102135.66;5118835;28;20126;-73
2022/01/22 09:23:29;;;;;;;14.52;3.72;;;;;;;6.02;49.84;102144.28;5117331;28;20450;-74
2022/01/22 09:25:57;;;;;;;14.25;3.70;;;;;;;6.22;49.19;102142.06;5118680;28;20623;-75
2022/01/22 09:28:25;;;;;;;10.95;3.92;;;;;;;6.33;48.76;102144.09;5117812;28;20074;-74
2022/01/22 09:30:52;;;;;;;12.15;3.83;;;;;;;6.43;48.49;102145.22;5116581;28;20043;-74
2022/01/22 09:33:19;;;;;;;20.40;3.95;;;;;;;6.30;49.52;102154.09;5117835;28;20070;-73
2022/01/22 09:35:45;;;;;;;12.48;3.35;;;;;;;6.10;49.60;102156.16;5116820;28;20064;-73
2022/01/22 09:38:12;;;;;;;14.40;4.18;;;;;;;6.34;49.48;102150.28;5117862;28;20043;-73
2022/01/22 09:40:38;;;;;;;14.38;3.90;;;;;;;6.55;48.25;102150.69;5116872;28;20048;-72
2022/01/22 09:43:05;;;;;;;10.00;3.92;;;;;;;6.43;48.77;102152.34;5117427;28;20043;-72
2022/01/22 09:45:32;;;;;;;9.38;3.25;;;;;;;6.50;48.20;102156.34;5116203;28;20047;-73
2022/01/22 09:48:00;;;;;;;11.25;3.45;;;;;;;6.34;48.25;102163.59;5119335;28;20070;-73
2022/01/22 09:50:28;;;;;;;13.73;4.07;;;;;;;6.50;48.41;102174.16;5118406;28;20197;-71
2022/01/22 09:52:55;;;;;;;18.88;3.67;;;;;;;6.37;48.89;102179.41;5098335;28;22063;-71
2022/01/22 09:55:22;;;;;;;8.80;3.72;;;;;;;6.18;48.68;102176.97;5116307;28;20476;-72
2022/01/22 09:57:49;;;;;;;17.50;3.90;;;;;;;6.60;47.66;102172.56;5117666;28;20074;-72
2022/01/22 10:00:18;;;;;;;14.63;3.60;;;;;;;6.23;48.80;102181.09;5116574;28;20063;-74
2022/01/22 10:02:51;;;;;;;7.40;3.47;;;;;;;6.51;48.35;102167.84;5117559;28;20075;-73
2022/01/22 10:05:34;;;;;;;9.60;4.28;;;;;;;6.56;48.08;102182.59;5116168;28;20050;-73
2022/01/22 10:08:25;;;;;;;11.63;3.65;;;;;;;6.75;47.21;102176.09;5114970;28;20067;-73
2022/01/22 10:10:53;;;;;;;12.30;4.35;;;;;;;6.34;48.33;102187.59;5113077;28;20059;-73
2022/01/22 10:13:42;;;;;;;15.25;4.60;;;;;;;6.66;47.91;102178.38;5114932;28;20107;-73
2022/01/22 10:16:42;;;;;;;13.55;4.35;;;;;;;7.23;46.61;102182.66;5117336;28;20070;-73
2022/01/22 10:19:16;;;;;;;17.38;4.75;;;;;;;7.53;45.62;102182.38;5112973;28;20095;-73
2022/01/22 10:21:52;;;;;;;12.57;4.05;;;;;;;7.47;45.44;102198.00;5117008;28;20111;-73
2022/01/22 10:24:22;;;;;;;15.07;3.80;;;;;;;7.31;44.86;102200.84;5117890;28;20488;-73
2022/01/22 10:27:19;;;;;;;14.15;4.65;;;;;;;7.02;46.07;102198.28;5116359;28;20075;-73
2022/01/22 10:30:15;;;;;;;15.55;4.38;;;;;;;7.43;45.42;102192.00;5116284;28;20075;-73
2022/01/22 10:32:51;;;;;;;12.27;4.50;;;;;;;7.41;45.69;102193.91;5114302;28;20044;-72
2022/01/22 10:35:26;;;;;;;11.55;3.80;;;;;;;7.38;45.35;102188.78;5116349;28;20115;-73
2022/01/22 10:38:15;;;;;;;12.32;3.97;;;;;;;7.19;45.74;102190.03;5121412;28;20063;-72
2022/01/22 10:40:42;;;;;;;14.32;3.75;;;;;;;7.41;44.98;102191.25;5118295;28;20047;-73
2022/01/22 10:46:03;;;;;;;8.57;2.55;;;;;;;7.21;43.72;102202.41;5118510;28;20074;-72
2022/01/22 10:48:30;;;;;;;11.85;3.83;;;;;;;7.07;43.95;102196.16;5120597;28;20384;-73
2022/01/22 10:51:02;;;;;;;10.55;3.05;;;;;;;7.03;45.16;102194.66;5120258;28;20503;-72
2022/01/22 10:53:41;;;;;;;10.23;2.75;;;;;;;6.77;44.85;102199.00;5117773;27;20130;-72
2022/01/22 10:56:09;;;;;;;8.82;2.92;;;;;;;6.97;44.65;102196.88;5115605;28;20119;-75
2022/01/22 10:58:49;;;;;;;10.98;2.30;;;;;;;6.69;44.99;102206.66;5117293;28;20070;-73
2022/01/22 11:01:16;;;;;;;10.00;2.92;;;;;;;6.74;44.40;102191.25;5115414;28;20083;-74
2022/01/22 11:03:43;;;;;;;8.93;2.67;;;;;;;7.08;43.30;102189.84;5117096;28;20100;-73
2022/01/22 11:06:25;;;;;;;11.15;2.78;;;;;;;6.24;45.97;102187.25;5116140;28;20058;-72
2022/01/22 11:08:54;;;;;;;8.40;2.50;;;;;;;6.58;45.00;102186.03;5115670;28;20143;-75
2022/01/22 11:11:23;;;;;;;14.85;3.53;;;;;;;6.90;44.30;102183.06;5116792;28;20043;-73
2022/01/22 11:13:49;;;;;;;8.63;3.03;;;;;;;6.90;43.67;102183.94;5117520;28;20102;-73
2022/01/22 11:16:19;;;;;;;11.18;3.22;;;;;;;6.85;43.41;102187.88;5116667;28;20050;-73
2022/01/22 11:19:11;;;;;;;7.45;2.70;;;;;;;7.22;42.65;102190.75;5117103;28;20403;-74
2022/01/22 11:21:43;;;;;;;7.43;2.85;;;;;;;7.24;42.52;102189.72;5116638;28;20068;-73
2022/01/22 11:24:11;;;;;;;10.77;2.75;;;;;;;7.15;42.77;102199.19;5116074;28;20067;-73
2022/01/22 11:26:39;;;;;;;11.55;2.90;;;;;;;6.65;43.04;102184.66;5112992;28;20066;-73
2022/01/22 11:29:06;;;;;;;10.70;3.03;;;;;;;6.91;42.61;102184.78;5115457;28;20055;-72
2022/01/22 11:31:34;;;;;;;11.93;3.53;;;;;;;6.85;42.89;102187.88;5094869;28;20391;-72
2022/01/22 11:34:03;;;;;;;9.25;3.17;;;;;;;6.48;43.78;102179.56;5116619;28;20067;-72
2022/01/22 11:36:37;;;;;;;9.57;3.50;;;;;;;6.64;42.24;102179.44;5116522;27;20376;-73
2022/01/22 11:39:05;;;;;;;7.45;2.72;;;;;;;6.65;42.22;102179.34;5115747;27;20526;-73
2022/01/22 11:41:32;;;;;;;13.25;3.72;;;;;;;7.02;41.49;102174.28;5115500;28;20443;-74
2022/01/22 11:44:12;;;;;;;15.40;3.63;;;;;;;6.67;43.10;102172.09;5115743;27;20217;-75
2022/01/22 11:46:45;;;;;;;9.52;3.55;;;;;;;7.07;41.71;102172.16;5116961;28;20130;-73
2022/01/22 11:49:18;;;;;;;10.45;3.60;;;;;;;7.05;42.12;102167.84;5114206;28;20162;-75
2022/01/22 11:51:48;;;;;;;12.23;2.92;;;;;;;7.01;41.97;102167.22;5115659;27;20044;-73
2022/01/22 11:54:19;;;;;;;8.07;2.63;;;;;;;7.15;40.34;102179.63;5116608;28;20054;-74
2022/01/22 11:56:52;;;;;;;6.05;2.33;;;;;;;6.88;40.02;102182.34;5116831;28;20063;-73
2022/01/22 11:59:31;;;;;;;8.88;2.25;;;;;;;6.98;39.96;102185.22;5116193;28;20078;-72
2022/01/22 12:02:03;;;;;;;5.97;2.10;;;;;;;6.97;40.13;102186.19;5117493;28;20051;-72
2022/01/22 12:04:33;;;;;;;7.68;2.72;;;;;;;7.11;40.90;102196.81;5118157;28;20043;-72
2022/01/22 12:07:02;;;;;;;8.43;2.78;;;;;;;7.15;40.95;102192.97;5119367;28;20074;-75
2022/01/22 12:09:42;;;;;;;6.88;2.50;;;;;;;7.13;40.54;102195.75;5115347;28;20044;-75
2022/01/22 12:15:15;;;;;;;9.00;2.80;;;;;;;6.93;40.92;102191.72;5115403;28;20099;-73
2022/01/22 12:17:53;;;;;;;13.27;3.58;;;;;;;6.99;41.08;102195.81;5116140;28;20437;-74
2022/01/22 12:23:15;;;;;;;12.75;3.13;;;;;;;6.83;41.47;102197.78;5115458;28;20055;-74
2022/01/22 12:25:41;;;;;;;11.32;3.25;;;;;;;7.09;40.76;102188.94;5115378;28;20042;-74
2022/01/22 12:28:13;;;;;;;8.18;3.10;;;;;;;7.29;40.82;102194.72;5119514;28;20071;-74
2022/01/22 12:30:45;;;;;;;9.50;3.13;;;;;;;6.66;42.49;102188.19;5121097;28;20166;-74
2022/01/22 12:33:15;;;;;;;12.68;4.18;;;;;;;7.12;41.48;102196.72;5099072;28;20040;-74
2022/01/22 12:35:47;;;;;;;12.50;3.90;;;;;;;6.71;42.14;102192.28;5099058;28;20064;-74
2022/01/22 12:38:23;;;;;;;9.05;3.15;;;;;;;6.84;41.89;102210.16;5098344;28;20071;-74
2022/01/22 12:40:55;;;;;;;11.35;3.30;;;;;;;7.08;41.30;102205.88;5096473;28;20047;-74
2022/01/22 12:43:29;;;;;;;10.43;3.30;;;;;;;7.10;40.95;102203.97;5097495;28;20052;-74
2022/01/22 12:46:01;;;;;;;21.05;3.90;;;;;;;7.15;41.12;102199.19;5096917;28;20480;-74
2022/01/22 12:48:29;;;;;;;12.40;3.90;;;;;;;7.30;41.06;102199.13;5096819;28;20443;-74
2022/01/22 12:51:01;;;;;;;11.73;3.78;;;;;;;7.30;41.40;102191.97;5098111;28;20048;-74
2022/01/22 12:53:27;;;;;;;;;;;;;;;7.50;41.63;102197.75;5099303;28;20127;-74
2022/01/22 12:58:25;;;;;;;10.88;3.97;;;;;;;7.43;42.10;102194.69;5099558;28;20040;-74
2022/01/22 13:01:07;;;;;;;11.50;3.40;;;;;;;7.41;42.02;102194.78;5100700;28;20044;-74
2022/01/22 13:03:42;;;;;;;19.50;3.75;;;;;;;7.67;41.49;102192.13;5098966;28;20164;-75
2022/01/22 13:06:09;;;;;;;11.85;3.45;;;;;;;7.52;41.93;102191.38;5100437;28;20051;-74
2022/01/22 13:08:36;;;;;;;11.05;3.70;;;;;;;7.72;41.26;102189.16;5100171;28;20048;-74
2022/01/22 13:11:07;;;;;;;15.48;4.00;;;;;;;7.56;41.55;102198.22;5098845;28;20108;-75
2022/01/22 13:13:36;;;;;;;16.83;5.70;;;;;;;7.73;40.81;102196.22;5099454;28;21076;-75
2022/01/22 13:16:06;;;;;;;10.55;4.18;;;;;;;7.36;41.10;102196.91;5099810;28;20063;-75
2022/01/22 13:18:43;;;;;;;14.68;4.40;;;;;;;7.27;41.09;102191.31;5100932;28;20043;-74
2022/01/22 13:21:11;;;;;;;13.50;3.60;;;;;;;7.28;41.25;102199.22;5099608;28;20135;-75